sensor_id;sensor_type;location;lat;lon;timestamp;pressure;altitude;pressure_sealevel;temperature;humidity
64200;BME280;50516;52.272;5.136;2023-03-29T00:01:18;101617.28;;;7.29;76.05
64200;BME280;50516;52.272;5.136;2023-03-29T00:03:45;101605.41;;;7.35;75.44
64200;BME280;50516;52.272;5.136;2023-03-29T00:06:11;101611.94;;;7.34;75.61
64200;BME280;50516;52.272;5.136;2023-03-29T00:08:40;101599.06;;;7.53;74.92
64200;BME280;50516;52.272;5.136;2023-03-29T00:11:06;101607.72;;;7.50;74.95
64200;BME280;50516;52.272;5.136;2023-03-29T00:13:32;101595.28;;;7.54;74.32
64200;BME280;50516;52.272;5.136;2023-03-29T00:15:57;101594.06;;;7.50;74.33
64200;BME280;50516;52.272;5.136;2023-03-29T00:18:23;101594.19;;;7.55;74.03
64200;BME280;50516;52.272;5.136;2023-03-29T00:20:58;101591.09;;;7.52;74.28
64200;BME280;50516;52.272;5.136;2023-03-29T00:23:23;101583.22;;;7.43;74.17
64200;BME280;50516;52.272;5.136;2023-03-29T00:25:53;101562.88;;;7.39;74.23
64200;BME280;50516;52.272;5.136;2023-03-29T00:28:19;101567.63;;;7.32;74.10
64200;BME280;50516;52.272;5.136;2023-03-29T00:30:45;101560.91;;;7.46;74.08
64200;BME280;50516;52.272;5.136;2023-03-29T00:33:10;101577.13;;;7.29;74.11
64200;BME280;50516;52.272;5.136;2023-03-29T00:35:39;101563.31;;;7.55;73.56
64200;BME280;50516;52.272;5.136;2023-03-29T00:38:05;101559.81;;;7.47;73.55
64200;BME280;50516;52.272;5.136;2023-03-29T00:40:31;101552.09;;;7.44;73.34
64200;BME280;50516;52.272;5.136;2023-03-29T00:42:57;101555.34;;;7.53;73.51
64200;BME280;50516;52.272;5.136;2023-03-29T00:45:25;101554.88;;;7.56;73.39
64200;BME280;50516;52.272;5.136;2023-03-29T00:47:57;101554.63;;;7.58;72.81
64200;BME280;50516;52.272;5.136;2023-03-29T00:50:29;101548.16;;;7.28;73.50
64200;BME280;50516;52.272;5.136;2023-03-29T00:53:06;101539.50;;;7.43;73.65
64200;BME280;50516;52.272;5.136;2023-03-29T00:55:36;101537.50;;;7.50;73.24
64200;BME280;50516;52.272;5.136;2023-03-29T00:58:05;101537.38;;;7.45;73.15
64200;BME280;50516;52.272;5.136;2023-03-29T01:00:36;101533.75;;;7.33;73.63
64200;BME280;50516;52.272;5.136;2023-03-29T01:03:07;101525.50;;;7.52;73.28
64200;BME280;50516;52.272;5.136;2023-03-29T01:05:40;101521.09;;;7.50;73.08
64200;BME280;50516;52.272;5.136;2023-03-29T01:08:25;101522.78;;;7.52;72.71
64200;BME280;50516;52.272;5.136;2023-03-29T01:10:59;101533.94;;;7.38;73.90
64200;BME280;50516;52.272;5.136;2023-03-29T01:13:36;101530.50;;;7.55;73.27
64200;BME280;50516;52.272;5.136;2023-03-29T01:16:05;101530.50;;;7.55;73.07
64200;BME280;50516;52.272;5.136;2023-03-29T01:18:31;101526.44;;;7.57;73.49
64200;BME280;50516;52.272;5.136;2023-03-29T01:21:13;101521.13;;;7.74;73.23
64200;BME280;50516;52.272;5.136;2023-03-29T01:29:50;101521.81;;;7.46;74.26
64200;BME280;50516;52.272;5.136;2023-03-29T01:32:32;101513.03;;;7.56;74.10
64200;BME280;50516;52.272;5.136;2023-03-29T01:35:13;101515.75;;;7.44;74.29
64200;BME280;50516;52.272;5.136;2023-03-29T01:37:43;101520.88;;;7.52;74.46
64200;BME280;50516;52.272;5.136;2023-03-29T01:40:10;101507.31;;;7.57;74.21
64200;BME280;50516;52.272;5.136;2023-03-29T01:45:44;101510.19;;;7.74;73.61
64200;BME280;50516;52.272;5.136;2023-03-29T01:48:19;101500.44;;;7.66;73.95
64200;BME280;50516;52.272;5.136;2023-03-29T01:50:52;101502.69;;;7.81;73.80
64200;BME280;50516;52.272;5.136;2023-03-29T01:56:06;101497.22;;;7.81;73.58
64200;BME280;50516;52.272;5.136;2023-03-29T01:58:36;101490.25;;;7.74;74.20
64200;BME280;50516;52.272;5.136;2023-03-29T02:01:04;101494.50;;;7.81;74.01
64200;BME280;50516;52.272;5.136;2023-03-29T02:03:36;101491.19;;;7.79;74.46
64200;BME280;50516;52.272;5.136;2023-03-29T02:06:09;101493.56;;;7.88;74.00
64200;BME280;50516;52.272;5.136;2023-03-29T02:08:35;101483.09;;;7.96;74.26
64200;BME280;50516;52.272;5.136;2023-03-29T02:11:03;101488.91;;;8.00;73.95
64200;BME280;50516;52.272;5.136;2023-03-29T02:13:28;101487.59;;;8.02;73.90
64200;BME280;50516;52.272;5.136;2023-03-29T02:15:54;101486.19;;;8.00;73.82
64200;BME280;50516;52.272;5.136;2023-03-29T02:18:19;101479.75;;;7.94;74.46
64200;BME280;50516;52.272;5.136;2023-03-29T02:20:47;101479.66;;;8.01;74.70
64200;BME280;50516;52.272;5.136;2023-03-29T02:23:23;101469.06;;;8.04;74.55
64200;BME280;50516;52.272;5.136;2023-03-29T02:25:52;101469.66;;;7.95;74.61
64200;BME280;50516;52.272;5.136;2023-03-29T02:28:19;101473.00;;;7.97;74.96
64200;BME280;50516;52.272;5.136;2023-03-29T02:30:56;101471.56;;;8.06;74.49
64200;BME280;50516;52.272;5.136;2023-03-29T02:33:31;101470.72;;;8.05;74.88
64200;BME280;50516;52.272;5.136;2023-03-29T02:36:06;101467.00;;;8.12;74.48
64200;BME280;50516;52.272;5.136;2023-03-29T02:38:34;101469.41;;;8.08;74.48
64200;BME280;50516;52.272;5.136;2023-03-29T02:41:01;101461.66;;;8.17;74.69
64200;BME280;50516;52.272;5.136;2023-03-29T02:43:27;101446.72;;;8.08;74.90
64200;BME280;50516;52.272;5.136;2023-03-29T02:45:53;101453.34;;;8.12;74.77
64200;BME280;50516;52.272;5.136;2023-03-29T02:48:22;101441.56;;;8.11;75.05
64200;BME280;50516;52.272;5.136;2023-03-29T02:50:52;101431.94;;;8.09;74.70
64200;BME280;50516;52.272;5.136;2023-03-29T02:53:23;101435.28;;;8.11;75.11
64200;BME280;50516;52.272;5.136;2023-03-29T02:55:50;101435.16;;;8.17;74.98
64200;BME280;50516;52.272;5.136;2023-03-29T02:58:17;101435.41;;;8.04;75.23
64200;BME280;50516;52.272;5.136;2023-03-29T03:00:51;101436.63;;;7.96;75.76
64200;BME280;50516;52.272;5.136;2023-03-29T03:03:17;101432.78;;;8.09;75.36
64200;BME280;50516;52.272;5.136;2023-03-29T03:05:42;101436.44;;;8.15;75.01
64200;BME280;50516;52.272;5.136;2023-03-29T03:08:08;101427.53;;;8.19;75.23
64200;BME280;50516;52.272;5.136;2023-03-29T03:10:34;101425.75;;;8.13;75.33
64200;BME280;50516;52.272;5.136;2023-03-29T03:13:00;101417.81;;;8.00;75.41
64200;BME280;50516;52.272;5.136;2023-03-29T03:15:26;101424.44;;;8.04;75.40
64200;BME280;50516;52.272;5.136;2023-03-29T03:17:51;101424.09;;;8.00;75.78
64200;BME280;50516;52.272;5.136;2023-03-29T03:20:17;101417.91;;;8.05;75.39
64200;BME280;50516;52.272;5.136;2023-03-29T03:22:45;101409.09;;;8.15;75.35
64200;BME280;50516;52.272;5.136;2023-03-29T03:25:15;101405.84;;;8.30;74.52
64200;BME280;50516;52.272;5.136;2023-03-29T03:27:43;101400.75;;;8.21;74.31
64200;BME280;50516;52.272;5.136;2023-03-29T03:30:09;101401.13;;;8.13;74.67
64200;BME280;50516;52.272;5.136;2023-03-29T03:32:35;101406.75;;;8.07;75.12
64200;BME280;50516;52.272;5.136;2023-03-29T03:35:02;101407.56;;;8.19;75.10
64200;BME280;50516;52.272;5.136;2023-03-29T03:37:30;101412.03;;;8.25;74.57
64200;BME280;50516;52.272;5.136;2023-03-29T03:39:55;101408.47;;;8.25;74.82
64200;BME280;50516;52.272;5.136;2023-03-29T03:42:21;101401.84;;;8.20;75.17
64200;BME280;50516;52.272;5.136;2023-03-29T03:44:47;101406.31;;;8.27;74.50
64200;BME280;50516;52.272;5.136;2023-03-29T03:47:15;101401.59;;;8.22;74.89
64200;BME280;50516;52.272;5.136;2023-03-29T03:49:40;101398.00;;;8.21;74.91
64200;BME280;50516;52.272;5.136;2023-03-29T03:52:06;101393.72;;;8.26;74.72
64200;BME280;50516;52.272;5.136;2023-03-29T03:54:32;101409.19;;;8.32;74.84
64200;BME280;50516;52.272;5.136;2023-03-29T03:56:57;101411.00;;;8.14;75.02
64200;BME280;50516;52.272;5.136;2023-03-29T03:59:23;101408.63;;;8.18;75.22
64200;BME280;50516;52.272;5.136;2023-03-29T04:01:49;101395.41;;;8.15;75.42
64200;BME280;50516;52.272;5.136;2023-03-29T04:04:14;101401.94;;;8.26;75.04
64200;BME280;50516;52.272;5.136;2023-03-29T04:06:40;101403.00;;;8.25;75.25
64200;BME280;50516;52.272;5.136;2023-03-29T04:09:06;101398.63;;;8.23;75.45
64200;BME280;50516;52.272;5.136;2023-03-29T04:11:33;101389.94;;;8.15;75.17
64200;BME280;50516;52.272;5.136;2023-03-29T04:13:58;101394.97;;;8.06;75.75
64200;BME280;50516;52.272;5.136;2023-03-29T04:16:24;101397.44;;;8.19;75.37
64200;BME280;50516;52.272;5.136;2023-03-29T04:18:50;101398.09;;;8.27;75.40
64200;BME280;50516;52.272;5.136;2023-03-29T04:21:15;101381.69;;;8.27;75.59
64200;BME280;50516;52.272;5.136;2023-03-29T04:23:41;101381.69;;;8.27;75.30
64200;BME280;50516;52.272;5.136;2023-03-29T04:26:07;101388.41;;;8.19;75.47
64200;BME280;50516;52.272;5.136;2023-03-29T04:28:33;101381.50;;;8.16;75.90
64200;BME280;50516;52.272;5.136;2023-03-29T04:30:58;101380.78;;;8.21;75.75
64200;BME280;50516;52.272;5.136;2023-03-29T04:33:23;101368.53;;;8.23;75.63
64200;BME280;50516;52.272;5.136;2023-03-29T04:35:49;101369.69;;;8.28;76.16
64200;BME280;50516;52.272;5.136;2023-03-29T04:38:14;101389.31;;;8.25;75.62
64200;BME280;50516;52.272;5.136;2023-03-29T04:40:40;101379.66;;;8.34;75.67
64200;BME280;50516;52.272;5.136;2023-03-29T04:43:06;101367.28;;;8.31;75.87
64200;BME280;50516;52.272;5.136;2023-03-29T04:45:31;101371.06;;;8.42;75.53
64200;BME280;50516;52.272;5.136;2023-03-29T04:47:57;101378.31;;;8.36;75.37
64200;BME280;50516;52.272;5.136;2023-03-29T04:50:26;101366.78;;;8.34;75.66
64200;BME280;50516;52.272;5.136;2023-03-29T04:52:52;101377.41;;;8.31;75.82
64200;BME280;50516;52.272;5.136;2023-03-29T04:55:17;101365.41;;;8.32;75.84
64200;BME280;50516;52.272;5.136;2023-03-29T04:57:42;101366.06;;;8.39;75.49
64200;BME280;50516;52.272;5.136;2023-03-29T05:00:11;101362.16;;;8.47;75.12
64200;BME280;50516;52.272;5.136;2023-03-29T05:02:42;101362.38;;;8.45;75.62
64200;BME280;50516;52.272;5.136;2023-03-29T05:05:08;101354.19;;;8.45;75.59
64200;BME280;50516;52.272;5.136;2023-03-29T05:07:33;101359.91;;;8.44;75.37
64200;BME280;50516;52.272;5.136;2023-03-29T05:09:59;101356.94;;;8.33;75.71
64200;BME280;50516;52.272;5.136;2023-03-29T05:12:25;101355.84;;;8.34;75.72
64200;BME280;50516;52.272;5.136;2023-03-29T05:14:50;101358.34;;;8.36;75.87
64200;BME280;50516;52.272;5.136;2023-03-29T05:17:15;101359.16;;;8.48;75.86
64200;BME280;50516;52.272;5.136;2023-03-29T05:19:41;101354.69;;;8.59;75.46
64200;BME280;50516;52.272;5.136;2023-03-29T05:22:07;101359.50;;;8.52;75.17
64200;BME280;50516;52.272;5.136;2023-03-29T05:24:33;101362.97;;;8.47;75.81
64200;BME280;50516;52.272;5.136;2023-03-29T05:26:58;101365.47;;;8.49;75.72
64200;BME280;50516;52.272;5.136;2023-03-29T05:29:23;101372.84;;;8.48;75.37
64200;BME280;50516;52.272;5.136;2023-03-29T05:31:49;101367.31;;;8.60;75.48
64200;BME280;50516;52.272;5.136;2023-03-29T05:34:14;101361.31;;;8.46;75.75
64200;BME280;50516;52.272;5.136;2023-03-29T05:36:39;101363.47;;;8.44;76.23
64200;BME280;50516;52.272;5.136;2023-03-29T05:39:06;101356.50;;;8.53;75.82
64200;BME280;50516;52.272;5.136;2023-03-29T05:41:32;101362.31;;;8.57;75.58
64200;BME280;50516;52.272;5.136;2023-03-29T05:43:58;101365.53;;;8.54;76.21
64200;BME280;50516;52.272;5.136;2023-03-29T05:46:23;101366.31;;;8.66;75.91
64200;BME280;50516;52.272;5.136;2023-03-29T05:48:49;101381.03;;;8.77;75.45
64200;BME280;50516;52.272;5.136;2023-03-29T05:51:14;101372.03;;;8.65;75.75
64200;BME280;50516;52.272;5.136;2023-03-29T05:53:40;101377.44;;;8.59;75.89
64200;BME280;50516;52.272;5.136;2023-03-29T05:56:06;101374.72;;;8.76;75.76
64200;BME280;50516;52.272;5.136;2023-03-29T05:58:32;101366.56;;;8.82;75.82
64200;BME280;50516;52.272;5.136;2023-03-29T06:00:58;101371.22;;;8.81;75.55
64200;BME280;50516;52.272;5.136;2023-03-29T06:03:24;101375.31;;;8.79;75.82
64200;BME280;50516;52.272;5.136;2023-03-29T06:05:57;101379.44;;;8.81;76.15
64200;BME280;50516;52.272;5.136;2023-03-29T06:08:24;101383.09;;;9.04;75.48
64200;BME280;50516;52.272;5.136;2023-03-29T06:10:50;101373.16;;;9.14;75.08
64200;BME280;50516;52.272;5.136;2023-03-29T06:13:18;101382.13;;;9.10;74.92
64200;BME280;50516;52.272;5.136;2023-03-29T06:15:44;101378.38;;;9.16;75.18
64200;BME280;50516;52.272;5.136;2023-03-29T06:18:14;101384.44;;;9.18;75.12
64200;BME280;50516;52.272;5.136;2023-03-29T06:20:40;101375.56;;;9.11;75.73
64200;BME280;50516;52.272;5.136;2023-03-29T06:23:05;101383.28;;;9.14;75.52
64200;BME280;50516;52.272;5.136;2023-03-29T06:25:32;101381.94;;;9.17;75.53
64200;BME280;50516;52.272;5.136;2023-03-29T06:27:58;101378.63;;;9.14;75.77
64200;BME280;50516;52.272;5.136;2023-03-29T06:30:23;101377.88;;;9.19;75.66
64200;BME280;50516;52.272;5.136;2023-03-29T06:32:49;101386.19;;;9.24;75.89
64200;BME280;50516;52.272;5.136;2023-03-29T06:35:15;101378.13;;;9.18;76.16
64200;BME280;50516;52.272;5.136;2023-03-29T06:37:40;101380.78;;;9.29;76.01
64200;BME280;50516;52.272;5.136;2023-03-29T06:40:14;101384.13;;;9.14;76.00
64200;BME280;50516;52.272;5.136;2023-03-29T06:42:41;101383.59;;;9.35;75.86
64200;BME280;50516;52.272;5.136;2023-03-29T06:45:07;101393.91;;;9.27;76.37
64200;BME280;50516;52.272;5.136;2023-03-29T06:47:32;101390.56;;;9.42;76.39
64200;BME280;50516;52.272;5.136;2023-03-29T06:49:58;101391.06;;;9.39;75.94
64200;BME280;50516;52.272;5.136;2023-03-29T06:52:23;101392.31;;;9.48;76.19
64200;BME280;50516;52.272;5.136;2023-03-29T06:54:49;101390.44;;;9.54;75.83
64200;BME280;50516;52.272;5.136;2023-03-29T06:57:14;101393.78;;;9.56;76.43
64200;BME280;50516;52.272;5.136;2023-03-29T06:59:40;101387.38;;;9.67;76.27
64200;BME280;50516;52.272;5.136;2023-03-29T07:02:05;101384.19;;;9.76;75.70
64200;BME280;50516;52.272;5.136;2023-03-29T07:04:31;101400.59;;;9.93;75.61
64200;BME280;50516;52.272;5.136;2023-03-29T07:06:57;101398.56;;;10.05;75.15
64200;BME280;50516;52.272;5.136;2023-03-29T07:09:28;101409.03;;;10.08;75.24
64200;BME280;50516;52.272;5.136;2023-03-29T07:11:55;101400.53;;;10.10;75.57
64200;BME280;50516;52.272;5.136;2023-03-29T07:14:21;101403.28;;;10.10;75.62
64200;BME280;50516;52.272;5.136;2023-03-29T07:16:47;101400.75;;;10.30;75.66
64200;BME280;50516;52.272;5.136;2023-03-29T07:19:13;101400.94;;;10.40;75.54
64200;BME280;50516;52.272;5.136;2023-03-29T07:21:39;101406.13;;;10.37;75.82
64200;BME280;50516;52.272;5.136;2023-03-29T07:24:05;101406.41;;;10.40;76.24
64200;BME280;50516;52.272;5.136;2023-03-29T07:26:31;101405.50;;;10.57;75.84
64200;BME280;50516;52.272;5.136;2023-03-29T07:28:57;101408.75;;;10.54;76.26
64200;BME280;50516;52.272;5.136;2023-03-29T07:31:23;101401.72;;;10.63;76.29
64200;BME280;50516;52.272;5.136;2023-03-29T07:33:48;101407.94;;;10.81;75.88
64200;BME280;50516;52.272;5.136;2023-03-29T07:36:16;101399.22;;;10.89;75.70
64200;BME280;50516;52.272;5.136;2023-03-29T07:38:42;101405.09;;;11.03;75.71
64200;BME280;50516;52.272;5.136;2023-03-29T07:41:07;101403.78;;;11.10;75.49
64200;BME280;50516;52.272;5.136;2023-03-29T07:43:33;101408.47;;;11.10;75.44
64200;BME280;50516;52.272;5.136;2023-03-29T07:46:01;101404.72;;;11.21;75.19
64200;BME280;50516;52.272;5.136;2023-03-29T07:48:26;101416.16;;;11.08;75.69
64200;BME280;50516;52.272;5.136;2023-03-29T07:50:52;101413.22;;;11.20;75.72
64200;BME280;50516;52.272;5.136;2023-03-29T07:53:17;101409.16;;;11.27;75.32
64200;BME280;50516;52.272;5.136;2023-03-29T07:55:43;101408.38;;;11.32;75.56
64200;BME280;50516;52.272;5.136;2023-03-29T07:58:12;101402.91;;;11.37;75.70
64200;BME280;50516;52.272;5.136;2023-03-29T08:00:38;101402.91;;;11.37;75.86
64200;BME280;50516;52.272;5.136;2023-03-29T08:03:04;101404.53;;;11.38;75.67
64200;BME280;50516;52.272;5.136;2023-03-29T08:05:29;101405.69;;;11.42;75.75
64200;BME280;50516;52.272;5.136;2023-03-29T08:07:54;101416.16;;;11.45;75.96
64200;BME280;50516;52.272;5.136;2023-03-29T08:10:20;101413.22;;;11.57;75.39
64200;BME280;50516;52.272;5.136;2023-03-29T08:12:47;101408.34;;;11.69;75.07
64200;BME280;50516;52.272;5.136;2023-03-29T08:15:14;101406.47;;;11.80;75.13
64200;BME280;50516;52.272;5.136;2023-03-29T08:17:39;101407.13;;;11.98;74.52
64200;BME280;50516;52.272;5.136;2023-03-29T08:20:08;101407.13;;;11.93;74.84
64200;BME280;50516;52.272;5.136;2023-03-29T08:22:35;101408.28;;;12.07;74.32
64200;BME280;50516;52.272;5.136;2023-03-29T08:25:00;101416.00;;;12.10;74.50
64200;BME280;50516;52.272;5.136;2023-03-29T08:27:26;101410.00;;;12.18;74.22
64200;BME280;50516;52.272;5.136;2023-03-29T08:29:51;101400.41;;;12.31;73.84
64200;BME280;50516;52.272;5.136;2023-03-29T08:32:17;101388.03;;;12.39;73.75
64200;BME280;50516;52.272;5.136;2023-03-29T08:34:42;101386.69;;;12.57;73.10
64200;BME280;50516;52.272;5.136;2023-03-29T08:37:08;101373.50;;;12.79;72.47
64200;BME280;50516;52.272;5.136;2023-03-29T08:39:34;101370.47;;;12.81;72.37
64200;BME280;50516;52.272;5.136;2023-03-29T08:44:59;101375.41;;;12.64;73.01
64200;BME280;50516;52.272;5.136;2023-03-29T08:50:12;101383.69;;;12.74;72.59
64200;BME280;50516;52.272;5.136;2023-03-29T08:52:48;101386.75;;;12.77;72.53
64200;BME280;50516;52.272;5.136;2023-03-29T08:55:29;101387.00;;;12.91;71.97
64200;BME280;50516;52.272;5.136;2023-03-29T08:57:57;101395.28;;;12.91;72.03
64200;BME280;50516;52.272;5.136;2023-03-29T09:00:36;101395.56;;;13.05;71.93
64200;BME280;50516;52.272;5.136;2023-03-29T09:03:12;101405.75;;;13.30;71.21
64200;BME280;50516;52.272;5.136;2023-03-29T09:05:43;101411.84;;;13.38;70.71
64200;BME280;50516;52.272;5.136;2023-03-29T09:08:12;101412.63;;;13.18;71.78
64200;BME280;50516;52.272;5.136;2023-03-29T09:11:02;101406.31;;;13.17;71.87
64200;BME280;50516;52.272;5.136;2023-03-29T09:16:40;101411.88;;;13.32;70.86
64200;BME280;50516;52.272;5.136;2023-03-29T09:19:50;101405.47;;;13.68;70.19
64200;BME280;50516;52.272;5.136;2023-03-29T09:22:26;101405.16;;;13.80;69.83
64200;BME280;50516;52.272;5.136;2023-03-29T09:25:13;101399.38;;;13.71;70.18
64200;BME280;50516;52.272;5.136;2023-03-29T09:28:03;101407.38;;;13.73;70.18
64200;BME280;50516;52.272;5.136;2023-03-29T09:30:41;101404.06;;;13.81;70.09
64200;BME280;50516;52.272;5.136;2023-03-29T09:33:18;101401.84;;;13.83;69.99
64200;BME280;50516;52.272;5.136;2023-03-29T09:38:36;101407.56;;;13.97;69.72
64200;BME280;50516;52.272;5.136;2023-03-29T09:41:08;101416.72;;;13.87;69.91
64200;BME280;50516;52.272;5.136;2023-03-29T09:43:40;101399.81;;;14.04;70.01
64200;BME280;50516;52.272;5.136;2023-03-29T09:46:22;101402.81;;;14.18;69.38
64200;BME280;50516;52.272;5.136;2023-03-29T09:48:49;101404.44;;;14.19;69.77
64200;BME280;50516;52.272;5.136;2023-03-29T09:51:16;101400.00;;;14.28;69.32
64200;BME280;50516;52.272;5.136;2023-03-29T09:53:43;101393.69;;;14.17;70.16
64200;BME280;50516;52.272;5.136;2023-03-29T09:56:09;101398.19;;;13.98;70.50
64200;BME280;50516;52.272;5.136;2023-03-29T09:58:34;101400.72;;;13.79;71.17
64200;BME280;50516;52.272;5.136;2023-03-29T10:01:04;101400.19;;;13.77;71.44
64200;BME280;50516;52.272;5.136;2023-03-29T10:03:32;101400.34;;;14.06;71.02
64200;BME280;50516;52.272;5.136;2023-03-29T10:06:00;101393.41;;;14.19;70.52
64200;BME280;50516;52.272;5.136;2023-03-29T10:08:34;101397.72;;;14.40;69.80
64200;BME280;50516;52.272;5.136;2023-03-29T10:11:05;101399.25;;;14.67;69.42
64200;BME280;50516;52.272;5.136;2023-03-29T10:13:34;101394.81;;;14.66;69.31
64200;BME280;50516;52.272;5.136;2023-03-29T10:18:31;101393.84;;;14.41;70.18
64200;BME280;50516;52.272;5.136;2023-03-29T10:20:58;101392.19;;;14.46;70.43
64200;BME280;50516;52.272;5.136;2023-03-29T10:23:29;101390.47;;;14.60;70.11
64200;BME280;50516;52.272;5.136;2023-03-29T10:25:55;101382.47;;;14.53;69.75
64200;BME280;50516;52.272;5.136;2023-03-29T10:28:21;101393.22;;;14.60;69.76
64200;BME280;50516;52.272;5.136;2023-03-29T10:30:52;101380.72;;;14.73;69.83
64200;BME280;50516;52.272;5.136;2023-03-29T10:33:21;101391.09;;;14.86;69.60
64200;BME280;50516;52.272;5.136;2023-03-29T10:35:50;101385.38;;;15.12;68.86
64200;BME280;50516;52.272;5.136;2023-03-29T10:38:18;101382.66;;;15.07;68.84
64200;BME280;50516;52.272;5.136;2023-03-29T10:40:46;101376.31;;;15.01;69.69
64200;BME280;50516;52.272;5.136;2023-03-29T10:43:25;101375.84;;;14.94;69.93
64200;BME280;50516;52.272;5.136;2023-03-29T10:45:56;101371.22;;;14.84;69.87
64200;BME280;50516;52.272;5.136;2023-03-29T10:48:29;101366.41;;;14.95;69.75
64200;BME280;50516;52.272;5.136;2023-03-29T10:51:00;101357.13;;;14.86;69.70
64200;BME280;50516;52.272;5.136;2023-03-29T10:53:27;101360.41;;;14.88;69.90
64200;BME280;50516;52.272;5.136;2023-03-29T11:01:16;101346.34;;;15.67;68.46
64200;BME280;50516;52.272;5.136;2023-03-29T11:04:00;101343.47;;;16.01;67.43
64200;BME280;50516;52.272;5.136;2023-03-29T11:06:46;101350.19;;;15.95;67.44
64200;BME280;50516;52.272;5.136;2023-03-29T11:09:31;101352.91;;;15.52;68.61
64200;BME280;50516;52.272;5.136;2023-03-29T11:12:19;101334.94;;;15.74;68.55
64200;BME280;50516;52.272;5.136;2023-03-29T11:20:10;101333.34;;;15.92;67.95
64200;BME280;50516;52.272;5.136;2023-03-29T11:22:50;101333.16;;;15.59;69.22
64200;BME280;50516;52.272;5.136;2023-03-29T11:25:27;101339.66;;;15.73;68.83
64200;BME280;50516;52.272;5.136;2023-03-29T11:31:13;101342.06;;;15.56;69.36
64200;BME280;50516;52.272;5.136;2023-03-29T11:37:07;101349.66;;;15.69;68.90
64200;BME280;50516;52.272;5.136;2023-03-29T11:42:41;101344.44;;;15.38;69.92
64200;BME280;50516;52.272;5.136;2023-03-29T11:45:13;101345.16;;;15.25;70.32
64200;BME280;50516;52.272;5.136;2023-03-29T11:47:40;101349.25;;;15.27;70.26
64200;BME280;50516;52.272;5.136;2023-03-29T11:50:16;101359.44;;;15.32;70.03
64200;BME280;50516;52.272;5.136;2023-03-29T11:52:55;101372.25;;;15.23;70.72
64200;BME280;50516;52.272;5.136;2023-03-29T11:55:35;101376.06;;;15.32;70.86
64200;BME280;50516;52.272;5.136;2023-03-29T11:58:11;101381.09;;;15.25;70.88
64200;BME280;50516;52.272;5.136;2023-03-29T12:00:51;101378.97;;;15.17;71.09
64200;BME280;50516;52.272;5.136;2023-03-29T12:03:45;101362.22;;;15.03;71.56
64200;BME280;50516;52.272;5.136;2023-03-29T12:06:22;101353.78;;;14.84;72.09
64200;BME280;50516;52.272;5.136;2023-03-29T12:09:02;101339.53;;;14.71;72.64
64200;BME280;50516;52.272;5.136;2023-03-29T12:11:38;101345.63;;;14.68;72.83
64200;BME280;50516;52.272;5.136;2023-03-29T12:14:14;101348.41;;;14.58;73.02
64200;BME280;50516;52.272;5.136;2023-03-29T12:16:46;101337.06;;;14.70;73.28
64200;BME280;50516;52.272;5.136;2023-03-29T12:21:43;101340.00;;;14.78;73.24
64200;BME280;50516;52.272;5.136;2023-03-29T12:24:11;101342.91;;;14.63;73.76
64200;BME280;50516;52.272;5.136;2023-03-29T12:26:56;101340.09;;;14.68;73.46
64200;BME280;50516;52.272;5.136;2023-03-29T12:35:05;101328.28;;;14.07;75.91
64200;BME280;50516;52.272;5.136;2023-03-29T12:40:44;101335.59;;;13.83;77.09
64200;BME280;50516;52.272;5.136;2023-03-29T12:43:30;101335.81;;;13.92;76.67
64200;BME280;50516;52.272;5.136;2023-03-29T12:45:58;101328.66;;;13.85;77.31
64200;BME280;50516;52.272;5.136;2023-03-29T12:48:27;101314.84;;;13.91;77.00
64200;BME280;50516;52.272;5.136;2023-03-29T12:51:02;101296.28;;;14.01;76.73
64200;BME280;50516;52.272;5.136;2023-03-29T12:53:37;101284.06;;;14.18;76.30
64200;BME280;50516;52.272;5.136;2023-03-29T12:58:49;101291.81;;;14.11;76.72
64200;BME280;50516;52.272;5.136;2023-03-29T13:01:23;101275.81;;;14.07;76.66
64200;BME280;50516;52.272;5.136;2023-03-29T13:06:32;101268.69;;;14.01;77.29
64200;BME280;50516;52.272;5.136;2023-03-29T13:09:18;101274.72;;;14.09;76.92
64200;BME280;50516;52.272;5.136;2023-03-29T13:14:53;101264.31;;;13.90;77.39
64200;BME280;50516;52.272;5.136;2023-03-29T13:17:50;101250.13;;;14.12;76.81
64200;BME280;50516;52.272;5.136;2023-03-29T13:23:21;101247.66;;;14.11;76.68
64200;BME280;50516;52.272;5.136;2023-03-29T13:33:57;101267.50;;;14.18;75.48
64200;BME280;50516;52.272;5.136;2023-03-29T13:39:20;101251.31;;;14.40;74.81
64200;BME280;50516;52.272;5.136;2023-03-29T13:41:49;101243.09;;;14.30;74.14
64200;BME280;50516;52.272;5.136;2023-03-29T13:46:48;101235.47;;;14.17;74.92
64200;BME280;50516;52.272;5.136;2023-03-29T13:49:20;101244.53;;;14.62;74.01
64200;BME280;50516;52.272;5.136;2023-03-29T13:52:12;101233.22;;;14.88;72.99
64200;BME280;50516;52.272;5.136;2023-03-29T13:54:52;101228.91;;;14.76;72.62
64200;BME280;50516;52.272;5.136;2023-03-29T14:00:29;101210.75;;;14.94;72.43
64200;BME280;50516;52.272;5.136;2023-03-29T14:03:00;101218.25;;;15.18;71.62
64200;BME280;50516;52.272;5.136;2023-03-29T14:05:32;101217.69;;;15.16;72.00
64200;BME280;50516;52.272;5.136;2023-03-29T14:08:12;101206.34;;;15.18;72.21
64200;BME280;50516;52.272;5.136;2023-03-29T14:10:40;101226.19;;;15.01;73.37
64200;BME280;50516;52.272;5.136;2023-03-29T14:13:12;101213.69;;;15.03;73.82
64200;BME280;50516;52.272;5.136;2023-03-29T14:15:45;101200.34;;;15.10;73.61
64200;BME280;50516;52.272;5.136;2023-03-29T14:18:14;101202.03;;;15.30;73.47
64200;BME280;50516;52.272;5.136;2023-03-29T14:20:47;101205.00;;;15.39;73.07
64200;BME280;50516;52.272;5.136;2023-03-29T14:23:18;101202.97;;;15.45;73.52
64200;BME280;50516;52.272;5.136;2023-03-29T14:25:45;101189.84;;;15.56;72.89
64200;BME280;50516;52.272;5.136;2023-03-29T14:28:25;101193.03;;;15.63;72.17
64200;BME280;50516;52.272;5.136;2023-03-29T14:30:51;101184.63;;;15.73;72.09
64200;BME280;50516;52.272;5.136;2023-03-29T14:33:31;101172.97;;;15.76;72.21